»·PEaware :: SWA647 KPHX-KSAN

SWA647 :: KPHX-KSAN

FLIGHT INFORMATION

Flight Status: Arrived
Operator:
Southwest Airlines
More flights by this operator :: More flights under this callsign
Pilot: Maximilliano F. (23467)
Aircraft: BOEING 737-800
(B738)
More flights by this aircraft type
Origin: KPHX Phoenix Sky Harbor Intl
United States
Destination: KSAN San Diego Intl-Lindbergh
United States
More flights between these airports :: More routes between these airports
Route: FYRBD1 MOHAK J2 HOGGZ LUCKI1
File this flight plan on PilotEdge
Remarks: RMK / SIMBRIEF
Altitude:
(Current/Filed)
36,000ft
Speed:
(Current/Filed)
467kts
Departed: 12-Oct-19 01:43 PM
Arrived: 12-Oct-19 02:38 PM
Distance/Time
Traveled:
264nm/0:55
Distance/Time
To Go:
Arrived

Flight Plot

Page will automatically refresh every two minutes.

Flight plan parsing failed; only flown route is shown


Map Options




Map Legend


Flown Route
Filed Route
Departure Airport
Arrival Airport
Navaid (VOR, NDB)
Fix

Horizontal Profiles

Position Reports

Time Latitude Longitude Heading Altitude Ground
Speed
12-Oct-19 12:55 33.433657 -111.996196 314 1139ft 0kts
12-Oct-19 12:56 33.433657 -111.996196 314 1139ft 0kts
12-Oct-19 12:57 33.433657 -111.996196 314 1139ft 0kts
12-Oct-19 12:58 33.433657 -111.996196 314 1139ft 0kts
12-Oct-19 12:59 33.433657 -111.996196 314 1139ft 0kts
12-Oct-19 13:00 33.433657 -111.996196 314 1139ft 0kts
12-Oct-19 13:01 33.433657 -111.996196 314 1139ft 0kts
12-Oct-19 13:02 33.433657 -111.996196 314 1139ft 0kts
12-Oct-19 13:03 33.433657 -111.996196 314 1139ft 0kts
12-Oct-19 13:04 33.433657 -111.996196 314 1139ft 0kts
12-Oct-19 13:05 33.433657 -111.996196 314 1139ft 0kts
12-Oct-19 13:06 33.433657 -111.996196 314 1139ft 0kts
12-Oct-19 13:07 33.433657 -111.996196 314 1139ft 0kts
12-Oct-19 13:08 33.433657 -111.996196 314 1139ft 0kts
12-Oct-19 13:09 33.433657 -111.996196 314 1139ft 0kts
12-Oct-19 13:10 33.433657 -111.996196 314 1139ft 0kts
12-Oct-19 13:11 33.433657 -111.996196 314 1139ft 0kts
12-Oct-19 13:11 33.433657 -111.996196 314 1139ft 0kts
12-Oct-19 13:13 33.433657 -111.996196 314 1139ft 0kts
12-Oct-19 13:14 33.433657 -111.996196 314 1139ft 0kts
12-Oct-19 13:14 33.433657 -111.996196 314 1139ft 0kts
12-Oct-19 13:15 33.433657 -111.996196 314 1139ft 0kts
12-Oct-19 13:17 33.433657 -111.996196 314 1139ft 0kts
12-Oct-19 13:17 33.433657 -111.996196 314 1139ft 0kts
12-Oct-19 13:18 33.433657 -111.996196 314 1139ft 0kts
12-Oct-19 13:19 33.433657 -111.996196 314 1139ft 0kts
12-Oct-19 13:20 33.433657 -111.996196 314 1139ft 0kts
12-Oct-19 13:21 33.433657 -111.996196 314 1139ft 0kts
12-Oct-19 13:22 33.433657 -111.996196 314 1139ft 0kts
12-Oct-19 13:23 33.433657 -111.996196 314 1139ft 0kts
12-Oct-19 13:24 33.433657 -111.996196 314 1139ft 0kts
12-Oct-19 13:25 33.433657 -111.996196 314 1139ft 0kts
12-Oct-19 13:26 33.433657 -111.996196 314 1139ft 0kts
12-Oct-19 13:27 33.433657 -111.996196 314 1139ft 0kts
12-Oct-19 13:28 33.433657 -111.996196 314 1139ft 0kts
12-Oct-19 13:29 33.433550 -111.995675 238 1139ft 2kts
12-Oct-19 13:30 33.433853 -111.995470 184 1139ft 0kts
12-Oct-19 13:31 33.433852 -111.995470 184 1139ft 0kts
12-Oct-19 13:32 33.433852 -111.995470 184 1139ft 0kts
12-Oct-19 13:33 33.433342 -111.995323 170 1139ft 0kts
12-Oct-19 13:34 33.432155 -111.995796 240 1139ft 9kts
12-Oct-19 13:35 33.432135 -112.001047 270 1139ft 22kts
12-Oct-19 13:36 33.432138 -112.008638 269 1139ft 22kts
12-Oct-19 13:37 33.432148 -112.015736 270 1139ft 20kts
12-Oct-19 13:38 33.432153 -112.022356 269 1139ft 19kts
12-Oct-19 13:39 33.431903 -112.026922 208 1139ft 0kts
12-Oct-19 13:40 33.431901 -112.026923 208 1139ft 0kts
12-Oct-19 13:41 33.431036 -112.026018 90 1139ft 11kts
12-Oct-19 13:42 33.431442 -111.982318 86 2200ft 190kts
12-Oct-19 13:43 33.433560 -111.908597 90 4823ft 252kts
12-Oct-19 13:44 33.401529 -111.846545 166 8789ft 243kts
12-Oct-19 13:45 33.347036 -111.883772 251 12117ft 253kts
12-Oct-19 13:46 33.358760 -111.968555 279 14766ft 288kts
12-Oct-19 13:47 33.336288 -112.058958 232 17139ft 325kts
12-Oct-19 13:48 33.281738 -112.149604 234 20117ft 349kts
12-Oct-19 13:49 33.223749 -112.241543 234 23574ft 351kts
12-Oct-19 13:50 33.165866 -112.337205 235 26477ft 359kts
12-Oct-19 13:51 33.107107 -112.432933 236 29563ft 354kts
12-Oct-19 13:52 33.048271 -112.528766 236 31849ft 362kts
12-Oct-19 13:53 32.988833 -112.622239 238 34848ft 343kts
12-Oct-19 13:54 32.949615 -112.725155 256 35901ft 357kts
12-Oct-19 13:55 32.934039 -112.841122 258 35906ft 356kts
12-Oct-19 13:56 32.918308 -112.957390 258 35902ft 356kts
12-Oct-19 13:57 32.902521 -113.073297 258 35900ft 356kts
12-Oct-19 13:58 32.886733 -113.188378 258 35907ft 356kts
12-Oct-19 13:59 32.870688 -113.304558 258 35906ft 356kts
12-Oct-19 14:00 32.854570 -113.420438 258 35903ft 356kts
12-Oct-19 14:01 32.838352 -113.536243 258 35900ft 354kts
12-Oct-19 14:02 32.822305 -113.650072 257 35898ft 355kts
12-Oct-19 14:03 32.805451 -113.765940 257 35914ft 353kts
12-Oct-19 14:04 32.788989 -113.881207 257 35913ft 354kts
12-Oct-19 14:05 32.775189 -113.996791 264 35916ft 357kts
12-Oct-19 14:06 32.776483 -114.115663 268 35909ft 361kts
12-Oct-19 14:07 32.781602 -114.235185 268 35903ft 362kts
12-Oct-19 14:08 32.786305 -114.354507 268 35905ft 363kts
12-Oct-19 14:09 32.811227 -114.473096 281 35903ft 375kts
12-Oct-19 14:10 32.843903 -114.591044 281 35901ft 376kts
12-Oct-19 14:11 32.874620 -114.707966 274 35918ft 372kts
12-Oct-19 14:12 32.877173 -114.828637 264 35915ft 366kts
12-Oct-19 14:13 32.874453 -114.949083 264 35912ft 364kts
12-Oct-19 14:14 32.871681 -115.070055 264 35766ft 369kts
12-Oct-19 14:15 32.868806 -115.191487 265 33173ft 365kts
12-Oct-19 14:16 32.865618 -115.318628 266 30064ft 398kts
12-Oct-19 14:17 32.850122 -115.447049 260 26849ft 386kts
12-Oct-19 14:18 32.830899 -115.570669 259 25903ft 382kts
12-Oct-19 14:19 32.810634 -115.694150 258 25901ft 381kts
12-Oct-19 14:20 32.790882 -115.814088 258 23466ft 369kts
12-Oct-19 14:21 32.778893 -115.932175 264 20829ft 353kts
12-Oct-19 14:22 32.770286 -116.047954 265 18422ft 367kts
12-Oct-19 14:23 32.761442 -116.164799 264 15983ft 346kts
12-Oct-19 14:24 32.753044 -116.274432 264 14215ft 312kts
12-Oct-19 14:25 32.744900 -116.378222 264 12299ft 316kts
12-Oct-19 14:26 32.737114 -116.478185 264 10786ft 286kts
12-Oct-19 14:27 32.728627 -116.570200 262 9731ft 283kts
12-Oct-19 14:28 32.719718 -116.662402 262 8244ft 284kts
12-Oct-19 14:29 32.712621 -116.753473 263 6759ft 268kts
12-Oct-19 14:30 32.701903 -116.836736 249 5706ft 241kts
12-Oct-19 14:31 32.679531 -116.909079 249 4603ft 225kts
12-Oct-19 14:32 32.683021 -116.981998 285 3555ft 226kts
12-Oct-19 14:33 32.699140 -117.048210 285 2630ft 173kts
12-Oct-19 14:34 32.711568 -117.099207 284 1560ft 155kts
12-Oct-19 14:35 32.723239 -117.147199 284 595ft 156kts
12-Oct-19 14:36 32.733603 -117.189877 285 21ft 56kts
12-Oct-19 14:37 32.733346 -117.193059 285 21ft 9kts
12-Oct-19 14:38 32.732783 -117.194452 205 21ft 5kts
12-Oct-19 14:39 32.732327 -117.195132 303 21ft 3kts
12-Oct-19 14:40 32.732551 -117.195471 310 21ft 0kts
12-Oct-19 14:41 32.732555 -117.195475 310 21ft 0kts

Navigation Log

Ident Type
Flight plan parsing failed, navigation log unavailable